Salina, KS (67401)

2:14 PM CDT on October 30, 2014 (GMT -0500)
Willis St Salina, KS | Change Station
CLOSE
Current Station
Personal Weather Station
Location: Salina, KS
Elevation: 1237 ft
Nearby Weather Stations
Active Advisory: Freeze Warning

Elev 1237 ft 38.81 °N, 97.62 °W | Updated 8 seconds ago

Clear
Clear
74.7 °F
Feels Like 77 °F
N
4.0
Wind Variable Wind from ESE
Gusts 9.0 mph

Today
High -- | Low -- °F
--% Chance of Precip.
Yesterday
High -- | Low -- °F
Precip. -- in
7:55 AM 6:32 PM
Waxing Crescent, 46% visible
Pressure 30.12 in
Visibility 10.0 miles
Clouds Clear
Heat Index 77 °F
Dew Point 39 °F
Humidity 28%
Rainfall 0.00 in
Snow Depth Not available.
UV 4 out of 12
Pollen 2.40 out of 12
Air Quality Not available.
Flu Activity Not available.
METAR KSLN 301853Z 33017KT 10SM CLR 22/02 A3013 RMK AO2 PK WND 32029/1842 SLP199 T02220017

More Conditions Fewer Conditions

Pressure 30.12 in
Visibility 10.0 miles
Clouds Clear
Heat Index 77 °F
Dew Point 39 °F
Humidity 28%
Rainfall 0.00 in
Snow Depth Not available.
UV 4 out of 12
Pollen 2.40 out of 12
Air Quality Not available.
Flu Activity Not available.
METAR KSLN 301853Z 33017KT 10SM CLR 22/02 A3013 RMK AO2 PK WND 32029/1842 SLP199 T02220017

More Conditions Fewer Conditions

10-Day Weather Forecast

Almanac

Astronomy

Oct. 30, 2014 Rise Set
Actual Time
Civil Twilight
Nautical Twilight
Astronomical Twilight
Moon
Length of Visible Light
Length of Day
Tomorrow will be .
, % of the Moon is Illuminated

Today's Extremes

State Highs State Lows

Community

WunderPhotos

Upload Photos

1,766,451 photos uploaded!

WunderBlogs® & News

Nearby

Air Quality

  Air Quality AQ Index Pollutant
Not available.

Snow Depth

Station Depth Elevation

Earthquake Activity

City Distance Mag. Time & Date
Minimum magnitude displayed is 2.5.

Coastal Water Temperatures

Place Temperature

Nearby Weather Stations